createdAt,value
2023-03-08T00:01:17.596Z,62.17
2023-03-08T00:03:47.431Z,62.30
2023-03-08T00:06:15.295Z,62.09
2023-03-08T00:08:42.342Z,62.08
2023-03-08T00:11:11.724Z,62.15
2023-03-08T00:13:38.546Z,62.10
2023-03-08T00:16:07.858Z,62.12
2023-03-08T00:18:35.298Z,62.22
2023-03-08T00:21:12.818Z,62.23
2023-03-08T00:23:40.271Z,62.30
2023-03-08T00:26:07.101Z,62.26
2023-03-08T00:28:33.701Z,62.32
2023-03-08T00:31:08.943Z,62.27
2023-03-08T00:33:36.459Z,62.39
2023-03-08T00:36:08.187Z,62.34
2023-03-08T00:38:36.333Z,62.34
2023-03-08T00:41:03.650Z,62.69
2023-03-08T00:43:30.734Z,62.20
2023-03-08T00:45:57.224Z,62.50
2023-03-08T00:48:24.473Z,62.26
2023-03-08T00:50:50.964Z,62.52
2023-03-08T00:53:17.747Z,62.51
2023-03-08T00:55:52.651Z,62.27
2023-03-08T00:58:20.060Z,62.49
2023-03-08T01:00:48.071Z,62.53
2023-03-08T01:03:15.607Z,62.52
2023-03-08T01:05:45.219Z,62.31
2023-03-08T01:08:13.108Z,62.41
2023-03-08T01:10:40.057Z,62.56
2023-03-08T01:13:08.325Z,62.53
2023-03-08T01:15:36.471Z,62.41
2023-03-08T01:18:04.597Z,62.55
2023-03-08T01:20:31.460Z,62.56
2023-03-08T01:22:58.519Z,62.54
2023-03-08T01:25:25.686Z,62.76
2023-03-08T01:27:52.201Z,62.65
2023-03-08T01:30:18.721Z,62.80
2023-03-08T01:32:45.312Z,62.71
2023-03-08T01:35:11.766Z,62.58
2023-03-08T01:37:38.255Z,62.72
2023-03-08T01:40:07.059Z,62.85
2023-03-08T01:42:34.101Z,62.67
2023-03-08T01:45:04.814Z,62.76
2023-03-08T01:47:35.453Z,62.82
2023-03-08T01:50:07.412Z,62.88
2023-03-08T01:52:40.978Z,62.87
2023-03-08T01:55:10.897Z,63.03
2023-03-08T01:57:45.020Z,62.77
2023-03-08T02:00:18.307Z,63.16
2023-03-08T02:02:49.587Z,63.00
2023-03-08T02:05:18.378Z,63.09
2023-03-08T02:07:44.903Z,62.99
2023-03-08T02:10:12.700Z,62.89
2023-03-08T02:12:40.495Z,62.78
2023-03-08T02:15:10.452Z,62.95
2023-03-08T02:17:39.622Z,63.11
2023-03-08T02:20:10.813Z,62.97
2023-03-08T02:22:41.878Z,63.06
2023-03-08T02:25:19.506Z,63.24
2023-03-08T02:27:46.592Z,63.14
2023-03-08T02:30:17.311Z,63.14
2023-03-08T02:32:44.031Z,63.48
2023-03-08T02:35:10.824Z,63.09
2023-03-08T02:37:37.335Z,63.07
2023-03-08T02:40:04.453Z,63.24
2023-03-08T02:42:31.208Z,63.00
2023-03-08T02:44:58.230Z,63.20
2023-03-08T02:47:24.709Z,63.23
2023-03-08T02:49:51.181Z,63.01
2023-03-08T02:52:17.893Z,63.27
2023-03-08T02:54:44.568Z,63.21
2023-03-08T02:57:11.039Z,63.24
2023-03-08T02:59:37.916Z,63.37
2023-03-08T03:02:04.563Z,63.47
2023-03-08T03:04:32.585Z,63.57
2023-03-08T03:06:59.618Z,63.31
2023-03-08T03:09:28.334Z,63.47
2023-03-08T03:11:55.832Z,63.58
2023-03-08T03:14:22.292Z,63.69
2023-03-08T03:16:48.869Z,63.59
2023-03-08T03:19:15.342Z,63.61
2023-03-08T03:21:41.831Z,63.59
2023-03-08T03:24:08.820Z,63.67
2023-03-08T03:26:35.291Z,63.47
2023-03-08T03:29:01.712Z,63.58
2023-03-08T03:31:28.526Z,63.36
2023-03-08T03:33:55.097Z,63.34
2023-03-08T03:36:22.404Z,63.34
2023-03-08T03:38:49.812Z,63.36
2023-03-08T03:41:19.512Z,63.59
2023-03-08T03:43:47.092Z,63.31
2023-03-08T03:46:17.324Z,63.49
2023-03-08T03:48:44.963Z,63.53
2023-03-08T03:51:14.933Z,63.81
2023-03-08T03:53:41.900Z,63.78
2023-03-08T03:56:17.530Z,63.97
2023-03-08T03:58:44.888Z,63.85
2023-03-08T04:01:16.222Z,63.68
2023-03-08T04:03:44.194Z,63.86
2023-03-08T04:06:16.915Z,63.93
2023-03-08T04:08:44.326Z,63.82
2023-03-08T04:11:13.720Z,64.04
2023-03-08T04:13:40.727Z,63.70
2023-03-08T04:16:15.057Z,63.62
2023-03-08T04:18:41.915Z,64.09
2023-03-08T04:21:08.739Z,63.87
2023-03-08T04:23:36.112Z,64.00
2023-03-08T04:26:04.533Z,63.84
2023-03-08T04:28:33.229Z,63.79
2023-03-08T04:31:00.859Z,64.10
2023-03-08T04:33:27.318Z,63.85
2023-03-08T04:35:53.777Z,64.02
2023-03-08T04:38:20.216Z,64.35
2023-03-08T04:41:04.583Z,64.13
2023-03-08T04:43:34.194Z,64.10
2023-03-08T04:46:01.155Z,63.99
2023-03-08T04:48:28.244Z,64.17
2023-03-08T04:50:59.582Z,64.23
2023-03-08T04:53:27.774Z,64.00
2023-03-08T04:55:54.735Z,63.89
2023-03-08T04:58:21.337Z,64.01
2023-03-08T05:00:47.985Z,63.94
2023-03-08T05:03:16.020Z,64.09
2023-03-08T05:05:47.023Z,64.22
2023-03-08T05:08:13.526Z,64.27
2023-03-08T05:10:45.855Z,64.20
2023-03-08T05:13:12.411Z,64.11
2023-03-08T05:15:40.045Z,64.64
2023-03-08T05:18:06.567Z,64.39
2023-03-08T05:20:33.104Z,64.35
2023-03-08T05:22:59.685Z,64.59
2023-03-08T05:25:26.266Z,64.45
2023-03-08T05:27:53.915Z,64.44
2023-03-08T05:30:20.838Z,64.55
2023-03-08T05:32:47.343Z,64.28
2023-03-08T05:35:14.046Z,64.29
2023-03-08T05:37:40.501Z,64.53
2023-03-08T05:40:07.504Z,64.43
2023-03-08T05:42:34.577Z,64.59
2023-03-08T05:45:01.924Z,64.45
2023-03-08T05:47:29.707Z,64.64
2023-03-08T05:49:56.401Z,64.61
2023-03-08T05:52:22.855Z,64.53
2023-03-08T05:54:50.195Z,64.54
2023-03-08T05:57:17.215Z,64.61
2023-03-08T05:59:44.159Z,64.67
2023-03-08T06:02:10.723Z,64.57
2023-03-08T06:04:38.513Z,64.55
2023-03-08T06:07:05.003Z,64.80
2023-03-08T06:09:31.999Z,64.54
2023-03-08T06:11:59.103Z,64.47
2023-03-08T06:14:25.637Z,64.55
2023-03-08T06:16:52.241Z,64.60
2023-03-08T06:19:18.813Z,64.56
2023-03-08T06:21:46.035Z,64.64
2023-03-08T06:24:13.016Z,64.59
2023-03-08T06:26:39.515Z,64.46
2023-03-08T06:29:05.966Z,64.46
2023-03-08T06:31:32.526Z,64.24
2023-03-08T06:34:03.078Z,64.44
2023-03-08T06:36:30.452Z,64.32
2023-03-08T06:38:59.012Z,64.23
2023-03-08T06:41:25.769Z,63.94
2023-03-08T06:43:52.242Z,63.57
2023-03-08T06:46:19.749Z,63.93
2023-03-08T06:48:49.124Z,64.13
2023-03-08T06:51:16.922Z,63.66
2023-03-08T06:53:43.498Z,63.57
2023-03-08T06:56:13.410Z,63.57
2023-03-08T06:58:40.250Z,63.88
2023-03-08T07:01:09.067Z,64.07
2023-03-08T07:03:36.806Z,63.95
2023-03-08T07:06:09.153Z,64.06
2023-03-08T07:08:37.602Z,63.84
2023-03-08T07:11:09.072Z,63.85
2023-03-08T07:13:37.364Z,64.12
2023-03-08T07:16:09.706Z,63.99
2023-03-08T07:18:37.468Z,63.68
2023-03-08T07:21:04.869Z,63.28
2023-03-08T07:23:31.486Z,63.29
2023-03-08T07:25:58.776Z,63.63
2023-03-08T07:28:25.345Z,63.66
2023-03-08T07:30:52.982Z,63.64
2023-03-08T07:33:22.506Z,63.50
2023-03-08T07:35:49.378Z,62.84
2023-03-08T07:38:16.960Z,63.30
2023-03-08T07:40:44.404Z,63.29
2023-03-08T07:43:11.246Z,63.14
2023-03-08T07:45:41.526Z,63.42
2023-03-08T07:48:08.773Z,63.40
2023-03-08T07:50:36.429Z,62.88
2023-03-08T07:53:03.959Z,62.89
2023-03-08T07:55:30.997Z,62.33
2023-03-08T07:57:57.479Z,62.80
2023-03-08T08:00:24.737Z,63.08
2023-03-08T08:02:53.463Z,62.52
2023-03-08T08:05:26.953Z,62.34
2023-03-08T08:07:54.174Z,61.87
2023-03-08T08:10:21.102Z,60.27
2023-03-08T08:12:47.656Z,61.58
2023-03-08T08:15:16.828Z,61.69
2023-03-08T08:17:43.421Z,61.67
2023-03-08T08:20:11.091Z,61.07
2023-03-08T08:22:37.707Z,61.68
2023-03-08T08:25:05.504Z,61.28
2023-03-08T08:27:32.412Z,60.03
2023-03-08T08:29:59.420Z,60.05
2023-03-08T08:32:26.659Z,60.22
2023-03-08T08:34:53.095Z,59.69
2023-03-08T08:37:19.709Z,60.37
2023-03-08T08:39:46.197Z,59.78
2023-03-08T08:42:13.480Z,60.40
2023-03-08T08:44:40.432Z,60.58
2023-03-08T08:47:07.548Z,59.76
2023-03-08T08:49:34.077Z,59.85
2023-03-08T08:52:00.629Z,60.66
2023-03-08T08:54:28.141Z,59.99
2023-03-08T08:56:55.151Z,58.92
2023-03-08T08:59:21.735Z,60.15
2023-03-08T09:01:48.481Z,60.43
2023-03-08T09:04:16.274Z,60.29
2023-03-08T09:06:43.394Z,58.72
2023-03-08T09:09:10.711Z,58.14
2023-03-08T09:11:45.114Z,59.70
2023-03-08T09:14:18.612Z,59.00
2023-03-08T09:16:45.749Z,59.80
2023-03-08T09:19:14.897Z,59.37
2023-03-08T09:22:36.329Z,59.46
2023-03-08T09:25:03.872Z,60.78
2023-03-08T09:27:30.956Z,60.10
2023-03-08T09:29:58.184Z,60.32
2023-03-08T09:32:25.457Z,60.22
2023-03-08T09:34:57.780Z,59.85
2023-03-08T09:37:24.346Z,60.14
2023-03-08T09:39:52.452Z,60.45
2023-03-08T09:42:39.796Z,60.37
2023-03-08T09:45:26.197Z,60.34
2023-03-08T09:48:22.747Z,59.55
2023-03-08T09:51:03.659Z,59.47
2023-03-08T09:53:51.120Z,59.67
2023-03-08T09:56:46.348Z,59.92
2023-03-08T09:59:14.242Z,59.68
2023-03-08T10:01:55.487Z,57.98
2023-03-08T10:04:25.315Z,57.15
2023-03-08T10:07:03.645Z,56.45
2023-03-08T10:09:39.535Z,56.96
2023-03-08T10:12:28.720Z,57.35
2023-03-08T10:15:13.911Z,57.68
2023-03-08T10:17:49.602Z,56.28
2023-03-08T10:20:30.811Z,58.00
2023-03-08T10:23:06.975Z,57.70
2023-03-08T10:25:34.366Z,57.43
2023-03-08T10:28:03.186Z,56.65
2023-03-08T10:30:39.987Z,57.04
2023-03-08T10:33:11.398Z,58.48
2023-03-08T10:35:55.584Z,57.71
2023-03-08T10:38:25.496Z,57.11
2023-03-08T10:41:12.463Z,55.92
2023-03-08T10:43:51.868Z,54.86
2023-03-08T10:46:21.736Z,56.55
2023-03-08T10:48:48.949Z,57.69
2023-03-08T10:51:22.700Z,55.37
2023-03-08T10:53:57.897Z,56.34
2023-03-08T10:56:30.863Z,56.82
2023-03-08T10:58:58.300Z,57.34
2023-03-08T11:01:29.244Z,56.70
2023-03-08T11:04:00.058Z,56.84
2023-03-08T11:06:27.144Z,56.46
2023-03-08T11:08:56.674Z,56.97
2023-03-08T11:11:23.510Z,56.93
2023-03-08T11:13:52.064Z,55.51
2023-03-08T11:16:28.401Z,55.64
2023-03-08T11:18:58.563Z,57.29
2023-03-08T11:21:45.842Z,57.21
2023-03-08T11:24:21.194Z,57.71
2023-03-08T11:27:12.833Z,56.96
2023-03-08T11:29:56.612Z,56.96
2023-03-08T11:32:36.794Z,56.51
2023-03-08T11:35:37.533Z,56.69
2023-03-08T11:38:26.796Z,56.92
2023-03-08T11:41:14.699Z,55.93
2023-03-08T11:43:55.798Z,55.21
2023-03-08T11:47:01.825Z,53.47
2023-03-08T11:49:34.367Z,53.96
2023-03-08T11:52:11.595Z,54.84
2023-03-08T11:55:09.977Z,54.95
2023-03-08T11:57:43.242Z,54.21
2023-03-08T12:00:33.565Z,53.36
2023-03-08T12:03:11.170Z,54.37
2023-03-08T12:05:52.507Z,54.08
2023-03-08T12:08:24.853Z,55.68
2023-03-08T12:11:22.564Z,55.39
2023-03-08T12:14:03.546Z,54.03
2023-03-08T12:16:39.761Z,54.65
2023-03-08T12:19:25.750Z,54.63
2023-03-08T12:21:55.302Z,54.38
2023-03-08T12:24:49.509Z,54.32
2023-03-08T12:27:28.192Z,54.18
2023-03-08T12:30:18.019Z,54.30
2023-03-08T12:32:46.946Z,54.55
2023-03-08T12:35:22.641Z,53.63
2023-03-08T12:37:56.577Z,54.32
2023-03-08T12:40:34.741Z,53.05
2023-03-08T12:43:26.498Z,53.55
2023-03-08T12:45:59.250Z,53.25
2023-03-08T12:48:27.397Z,53.88
2023-03-08T12:51:00.468Z,53.39
2023-03-08T12:53:38.554Z,53.62
2023-03-08T12:56:35.945Z,53.98
2023-03-08T12:59:27.296Z,54.21
2023-03-08T13:01:57.017Z,53.90
2023-03-08T13:04:40.462Z,54.65
2023-03-08T13:07:38.929Z,54.38
2023-03-08T13:10:23.367Z,53.65
2023-03-08T13:13:09.305Z,53.83
2023-03-08T13:15:39.508Z,54.20
2023-03-08T13:18:07.856Z,54.03
2023-03-08T13:20:41.742Z,53.43
2023-03-08T13:23:14.662Z,53.88
2023-03-08T13:25:46.666Z,53.57
2023-03-08T13:28:17.629Z,54.20
2023-03-08T13:30:51.426Z,53.87
2023-03-08T13:33:25.357Z,53.24
2023-03-08T13:36:24.133Z,53.99
2023-03-08T13:39:15.512Z,53.90
2023-03-08T13:41:45.254Z,54.22
2023-03-08T13:44:21.043Z,53.91
2023-03-08T13:46:50.883Z,54.09
2023-03-08T13:49:52.084Z,54.10
2023-03-08T13:52:22.644Z,54.46
2023-03-08T13:54:52.913Z,54.67
2023-03-08T13:57:23.627Z,54.19
2023-03-08T13:59:54.331Z,54.36
2023-03-08T14:02:24.266Z,54.36
2023-03-08T14:04:51.855Z,54.12
2023-03-08T14:07:25.171Z,54.14
2023-03-08T14:09:52.852Z,53.72
2023-03-08T14:12:27.129Z,53.97
2023-03-08T14:15:00.749Z,53.77
2023-03-08T14:17:31.991Z,54.36
2023-03-08T14:20:15.562Z,54.30
2023-03-08T14:22:48.311Z,53.50
2023-03-08T14:25:29.925Z,53.28
2023-03-08T14:27:57.392Z,53.74
2023-03-08T14:30:29.895Z,54.22
2023-03-08T14:33:20.156Z,54.30
2023-03-08T14:35:59.293Z,54.11
2023-03-08T14:38:29.777Z,53.87
2023-03-08T14:40:58.323Z,53.60
2023-03-08T14:43:26.902Z,53.66
2023-03-08T14:45:57.768Z,53.89
2023-03-08T14:48:35.543Z,54.00
2023-03-08T14:51:24.124Z,53.82
2023-03-08T14:54:00.383Z,53.91
2023-03-08T14:56:29.580Z,53.99
2023-03-08T14:59:03.299Z,53.91
2023-03-08T15:01:35.697Z,53.86
2023-03-08T15:04:04.370Z,53.80
2023-03-08T15:06:33.837Z,53.87
2023-03-08T15:09:02.312Z,53.94
2023-03-08T15:11:30.957Z,53.94
2023-03-08T15:13:59.057Z,53.96
2023-03-08T15:16:26.925Z,54.06
2023-03-08T15:18:54.428Z,54.08
2023-03-08T15:21:27.481Z,54.05
2023-03-08T15:23:55.254Z,54.19
2023-03-08T15:26:25.229Z,54.27
2023-03-08T15:28:51.808Z,54.06
2023-03-08T15:31:19.138Z,54.15
2023-03-08T15:33:46.045Z,54.29
2023-03-08T15:36:15.663Z,54.37
2023-03-08T15:38:43.106Z,54.23
2023-03-08T15:41:14.156Z,54.16
2023-03-08T15:43:41.821Z,54.48
2023-03-08T15:46:13.946Z,54.47
2023-03-08T15:48:41.268Z,54.58
2023-03-08T15:51:17.676Z,54.21
2023-03-08T15:53:44.954Z,54.16
2023-03-08T15:56:12.123Z,54.15
2023-03-08T15:58:38.757Z,54.21
2023-03-08T16:01:06.272Z,54.31
2023-03-08T16:03:34.425Z,54.44
2023-03-08T16:06:03.507Z,54.45
2023-03-08T16:08:30.834Z,54.65
2023-03-08T16:11:03.091Z,54.30
2023-03-08T16:13:30.448Z,54.46
2023-03-08T16:15:59.059Z,54.38
2023-03-08T16:18:25.927Z,54.39
2023-03-08T16:20:52.915Z,54.64
2023-03-08T16:23:20.078Z,54.44
2023-03-08T16:26:05.422Z,54.59
2023-03-08T16:28:40.620Z,54.56
2023-03-08T16:31:08.500Z,54.48
2023-03-08T16:33:36.498Z,54.70
2023-03-08T16:36:03.340Z,54.72
2023-03-08T16:38:30.017Z,54.63
2023-03-08T16:41:11.616Z,54.71
2023-03-08T16:43:46.467Z,54.79
2023-03-08T16:46:38.635Z,54.63
2023-03-08T16:49:13.035Z,54.81
2023-03-08T16:51:42.125Z,54.51
2023-03-08T16:54:10.867Z,54.79
2023-03-08T16:56:38.507Z,54.71
2023-03-08T16:59:05.026Z,54.99
2023-03-08T17:01:32.320Z,54.99
2023-03-08T17:03:59.179Z,55.08
2023-03-08T17:06:29.140Z,55.05
2023-03-08T17:08:57.920Z,55.07
2023-03-08T17:11:32.399Z,55.22
2023-03-08T17:14:07.132Z,55.11
2023-03-08T17:16:35.574Z,55.23
2023-03-08T17:19:05.568Z,55.14
2023-03-08T17:21:37.637Z,55.25
2023-03-08T17:24:06.898Z,55.23
2023-03-08T17:26:39.610Z,55.28
2023-03-08T17:29:14.907Z,55.14
2023-03-08T17:31:43.137Z,55.33
2023-03-08T17:34:10.461Z,55.22
2023-03-08T17:36:39.781Z,55.13
2023-03-08T17:39:07.805Z,55.06
2023-03-08T17:41:38.954Z,55.22
2023-03-08T17:44:06.033Z,54.92
2023-03-08T17:46:32.733Z,55.14
2023-03-08T17:48:59.200Z,55.14
2023-03-08T17:51:28.271Z,55.28
2023-03-08T17:53:59.175Z,55.17
2023-03-08T17:56:37.946Z,55.29
2023-03-08T17:59:10.128Z,55.43
2023-03-08T18:01:40.738Z,55.33
2023-03-08T18:04:11.581Z,55.29
2023-03-08T18:06:42.975Z,55.32
2023-03-08T18:09:16.276Z,55.27
2023-03-08T18:11:51.001Z,55.52
2023-03-08T18:14:18.479Z,55.53
2023-03-08T18:16:48.231Z,55.51
2023-03-08T18:19:14.740Z,55.31
2023-03-08T18:21:41.778Z,55.58
2023-03-08T18:24:12.056Z,55.63
2023-03-08T18:26:39.763Z,55.66
2023-03-08T18:29:06.192Z,55.62
2023-03-08T18:31:36.908Z,55.64
2023-03-08T18:34:04.590Z,55.56
2023-03-08T18:36:31.056Z,55.56
2023-03-08T18:38:57.608Z,55.73
2023-03-08T18:41:29.188Z,55.67
2023-03-08T18:44:00.724Z,55.86
2023-03-08T18:46:34.223Z,55.89
2023-03-08T18:49:12.615Z,55.82
2023-03-08T18:51:43.435Z,55.95
2023-03-08T18:54:13.635Z,55.83
2023-03-08T18:56:41.841Z,56.01
2023-03-08T18:59:10.035Z,55.99
2023-03-08T19:01:36.814Z,55.83
2023-03-08T19:04:16.127Z,55.91
2023-03-08T19:06:48.223Z,55.77
2023-03-08T19:09:21.065Z,55.86
2023-03-08T19:11:48.554Z,55.81
2023-03-08T19:14:20.990Z,55.88
2023-03-08T19:16:57.231Z,55.81
2023-03-08T19:19:26.592Z,55.88
2023-03-08T19:21:56.158Z,55.72
2023-03-08T19:24:25.044Z,55.96
2023-03-08T19:26:58.307Z,55.92
2023-03-08T19:29:36.191Z,55.82
2023-03-08T19:32:07.821Z,55.96
2023-03-08T19:34:37.779Z,55.96
2023-03-08T19:37:09.034Z,55.95
2023-03-08T19:39:37.945Z,56.09
2023-03-08T19:42:14.201Z,55.97
2023-03-08T19:44:48.879Z,56.06
2023-03-08T19:47:20.280Z,56.09
2023-03-08T19:49:49.825Z,56.22
2023-03-08T19:52:16.341Z,56.06
2023-03-08T19:54:44.009Z,56.26
2023-03-08T19:57:10.570Z,55.99
2023-03-08T19:59:40.363Z,55.96
2023-03-08T20:02:12.279Z,56.14
2023-03-08T20:04:42.472Z,56.21
2023-03-08T20:07:11.975Z,56.18
2023-03-08T20:09:53.965Z,56.11
2023-03-08T20:12:24.062Z,56.37
2023-03-08T20:14:58.220Z,56.17
2023-03-08T20:17:26.473Z,56.00
2023-03-08T20:19:52.984Z,56.25
2023-03-08T20:22:19.474Z,55.99
2023-03-08T20:24:52.869Z,56.09
2023-03-08T20:27:30.157Z,56.13
2023-03-08T20:29:57.565Z,56.09
2023-03-08T20:32:26.072Z,56.31
2023-03-08T20:34:56.966Z,56.17
2023-03-08T20:37:26.083Z,56.06
2023-03-08T20:40:01.199Z,56.24
2023-03-08T20:42:41.015Z,56.22
2023-03-08T20:45:13.661Z,56.53
2023-03-08T20:47:46.025Z,56.32
2023-03-08T20:50:15.557Z,56.35
2023-03-08T20:52:50.118Z,56.41
2023-03-08T20:55:17.312Z,56.54
2023-03-08T20:57:44.542Z,56.30
2023-03-08T21:00:13.914Z,56.39
2023-03-08T21:02:42.246Z,56.44
2023-03-08T21:05:13.257Z,56.48
2023-03-08T21:07:41.291Z,56.44
2023-03-08T21:10:29.438Z,56.46
2023-03-08T21:13:12.190Z,56.56
2023-03-08T21:15:43.411Z,56.53
2023-03-08T21:18:13.422Z,56.56
2023-03-08T21:20:42.369Z,56.45
2023-03-08T21:23:08.876Z,56.64
2023-03-08T21:25:36.223Z,56.67
2023-03-08T21:28:04.759Z,56.71
2023-03-08T21:30:32.065Z,56.90
2023-03-08T21:32:58.987Z,56.73
2023-03-08T21:35:25.474Z,56.94
2023-03-08T21:37:52.038Z,57.01
2023-03-08T21:40:18.647Z,56.97
2023-03-08T21:42:45.155Z,57.00
2023-03-08T21:45:12.380Z,57.04
2023-03-08T21:47:39.475Z,57.07
2023-03-08T21:50:08.921Z,57.04
2023-03-08T21:52:36.404Z,56.83
2023-03-08T21:55:03.155Z,57.20
2023-03-08T21:57:34.064Z,57.17
2023-03-08T22:00:01.178Z,57.06
2023-03-08T22:02:27.712Z,57.26
2023-03-08T22:04:54.210Z,57.28
2023-03-08T22:07:20.567Z,57.45
2023-03-08T22:09:47.449Z,57.18
2023-03-08T22:12:14.455Z,57.29
2023-03-08T22:14:40.880Z,57.44
2023-03-08T22:17:07.297Z,57.47
2023-03-08T22:19:33.808Z,57.51
2023-03-08T22:22:00.848Z,57.44
2023-03-08T22:24:27.850Z,57.57
2023-03-08T22:26:54.353Z,57.68
2023-03-08T22:29:20.836Z,57.64
2023-03-08T22:31:47.425Z,57.84
2023-03-08T22:34:13.973Z,57.70
2023-03-08T22:36:40.981Z,57.95
2023-03-08T22:39:08.076Z,57.93
2023-03-08T22:41:34.594Z,57.97
2023-03-08T22:44:03.466Z,57.91
2023-03-08T22:46:30.141Z,58.29
2023-03-08T22:48:57.872Z,58.12
2023-03-08T22:51:26.973Z,58.16
2023-03-08T22:53:55.428Z,58.26
2023-03-08T22:56:25.623Z,58.18
2023-03-08T22:58:52.650Z,58.20
2023-03-08T23:01:21.808Z,58.51
2023-03-08T23:03:50.183Z,58.61
2023-03-08T23:06:17.974Z,58.67
2023-03-08T23:08:45.802Z,58.58
2023-03-08T23:11:12.916Z,58.74
2023-03-08T23:13:40.599Z,58.68
2023-03-08T23:16:07.903Z,58.60
2023-03-08T23:18:34.677Z,59.05
2023-03-08T23:21:04.170Z,58.76
2023-03-08T23:23:30.965Z,58.91
2023-03-08T23:25:57.814Z,59.02
2023-03-08T23:28:24.506Z,59.30
2023-03-08T23:30:51.086Z,59.10
2023-03-08T23:33:17.884Z,59.10
2023-03-08T23:35:48.384Z,59.29
2023-03-08T23:38:15.188Z,59.48
2023-03-08T23:40:41.651Z,59.52
2023-03-08T23:43:08.756Z,59.65
2023-03-08T23:45:38.616Z,59.58
2023-03-08T23:48:05.248Z,59.51
2023-03-08T23:50:34.209Z,59.76
2023-03-08T23:53:00.730Z,59.70
2023-03-08T23:55:27.226Z,59.69
2023-03-08T23:57:54.295Z,59.49
